Peonia, Kentucky
Current Conditions -  °F | °C
As of 2:15 AM on Monday 24 Nov 2014 (Local Time) from KGLW Reporting Station
Overcast Overcast  
Wind Chill: 61°   Ceiling: 2300
Heat Index: 61°   Visibility: 10mi
Dew Point: 56°   Wind: 15mph
Humidity: 82%   Direction: 200°SSW
Pressure: 29.44"   Gusts: 24mph
Location:  37.4262°N, 86.1465°W
Report Text: KGLW 240815Z AUTO 20013G21KT 10SM BKN023 OVC029 16/13 A2944 RMK AO2 T01630133
Loading
Personal Weather Stations






























Interactive Weather Map New forecast layout! Learn more

10-Day Weather Forecast

Advertisements
Track Severe Weather on mobile